Time;durP1;ratioP1;P1;durP2;ratioP2;P2;SDS_P1;SDS_P2;PMS_P1;PMS_P2;Temp;Humidity;BMP_temperature;BMP_pressure;BME280_temperature;BME280_humidity;BME280_pressure;Samples;Min_cycle;Max_cycle;Signal;HPM_P1;HPM_P2
2023/08/31 00:03:59;;;;;;;5.53;1.27;;;;;;;14.83;100.00;97365.69;18301046;32;20042;-58
2023/08/31 00:14:03;;;;;;;2.72;1.27;;;;;;;14.86;100.00;97367.00;18300363;32;20065;-58
2023/08/31 00:24:07;;;;;;;2.67;1.30;;;;;;;14.83;100.00;97384.72;18286287;32;20102;-58
2023/08/31 00:34:14;;;;;;;2.22;1.15;;;;;;;14.78;100.00;97386.75;18298325;32;20058;-57
2023/08/31 00:44:17;;;;;;;2.80;1.05;;;;;;;14.74;100.00;97400.97;18299094;32;20046;-58
2023/08/31 00:54:21;;;;;;;2.45;1.30;;;;;;;14.72;100.00;97403.19;18298247;32;20073;-58
2023/08/31 01:04:48;;;;;;;3.75;1.20;;;;;;;14.69;100.00;97395.63;18284605;32;20155;-58
2023/08/31 01:15:02;;;;;;;2.72;1.00;;;;;;;14.61;100.00;97390.03;18297554;32;20089;-58
2023/08/31 01:25:05;;;;;;;45.22;14.00;;;;;;;14.46;100.00;97383.81;18296930;32;20058;-58
2023/08/31 01:35:08;;;;;;;4.77;1.17;;;;;;;14.37;100.00;97388.34;18295950;32;20057;-58
2023/08/31 01:45:14;;;;;;;4.32;1.25;;;;;;;14.28;100.00;97396.41;18295854;32;20067;-58
2023/08/31 01:55:17;;;;;;;4.68;0.93;;;;;;;14.22;100.00;97408.47;18295683;32;20058;-57
2023/08/31 02:05:19;;;;;;;2.37;1.10;;;;;;;14.17;100.00;97408.56;18295246;32;20081;-57
2023/08/31 02:15:22;;;;;;;3.33;0.95;;;;;;;14.13;100.00;97416.53;18281132;32;20059;-57
2023/08/31 02:25:27;;;;;;;2.92;1.27;;;;;;;14.10;100.00;97419.84;18294426;32;20054;-57
2023/08/31 02:35:30;;;;;;;6.57;1.15;;;;;;;14.07;100.00;97428.59;18267970;32;20050;-58
2023/08/31 02:45:32;;;;;;;2.83;1.05;;;;;;;14.04;100.00;97431.91;18293827;32;20092;-57
2023/08/31 02:55:34;;;;;;;3.10;1.58;;;;;;;13.98;100.00;97431.19;18295442;32;20114;-57
2023/08/31 03:05:36;;;;;;;3.05;1.25;;;;;;;13.92;100.00;97442.44;18303920;32;20427;-58
2023/08/31 03:15:40;;;;;;;5.80;1.23;;;;;;;13.88;100.00;97448.47;18303249;32;20106;-58
2023/08/31 03:25:42;;;;;;;3.00;1.00;;;;;;;13.89;100.00;97439.22;18289202;32;20093;-58
2023/08/31 03:35:44;;;;;;;1.55;0.77;;;;;;;13.89;100.00;97441.94;18302031;32;20046;-58
2023/08/31 03:45:46;;;;;;;3.03;1.00;;;;;;;13.89;100.00;97449.28;18276013;32;20384;-58
2023/08/31 03:55:49;;;;;;;3.70;1.37;;;;;;;13.86;100.00;97445.25;18301720;32;20121;-57
2023/08/31 04:05:55;;;;;;;2.72;0.95;;;;;;;13.80;100.00;97462.75;18286391;32;20050;-57
2023/08/31 04:15:58;;;;;;;1.98;0.90;;;;;;;13.64;100.00;97469.53;18300272;32;20058;-57
2023/08/31 04:26:00;;;;;;;4.65;1.17;;;;;;;13.47;100.00;97480.88;18299957;32;20062;-58
2023/08/31 04:36:06;;;;;;;1.60;1.05;;;;;;;13.33;100.00;97497.91;18299198;32;20110;-58
2023/08/31 04:46:09;;;;;;;2.40;0.80;;;;;;;13.22;100.00;97496.41;18299094;32;20054;-57
2023/08/31 04:56:12;;;;;;;3.80;1.30;;;;;;;13.19;100.00;97505.94;18298570;32;20117;-57
2023/08/31 05:06:15;;;;;;;2.78;1.20;;;;;;;13.12;100.00;97508.19;18284393;32;20086;-58
2023/08/31 05:16:18;;;;;;;2.22;1.10;;;;;;;13.11;100.00;97517.44;18297238;32;20093;-57
2023/08/31 05:26:20;;;;;;;3.20;0.75;;;;;;;13.06;100.00;97528.38;18297500;32;20113;-57
2023/08/31 05:36:23;;;;;;;4.32;1.08;;;;;;;13.11;100.00;97550.00;18295554;32;20050;-57
2023/08/31 05:46:25;;;;;;;1.33;0.77;;;;;;;13.31;100.00;97559.03;18293516;32;20369;-57
2023/08/31 05:56:28;;;;;;;1.60;1.15;;;;;;;13.60;100.00;97552.72;18279465;32;20102;-58
2023/08/31 06:06:32;;;;;;;3.17;1.12;;;;;;;13.99;100.00;97557.03;18292844;32;20050;-58
2023/08/31 06:16:35;;;;;;;1.50;1.20;;;;;;;14.37;100.00;97571.38;18278909;32;20075;-57
2023/08/31 06:26:39;;;;;;;1.55;0.90;;;;;;;14.58;100.00;97582.75;18291897;32;20134;-57
2023/08/31 06:36:41;;;;;;;1.70;0.90;;;;;;;14.71;100.00;97588.56;18300211;32;20369;-57
2023/08/31 06:46:44;;;;;;;2.20;1.00;;;;;;;14.82;100.00;97595.41;18305015;32;20046;-57
2023/08/31 06:56:47;;;;;;;1.73;1.05;;;;;;;14.96;100.00;97600.09;18278311;32;20061;-58
2023/08/31 07:06:51;;;;;;;2.15;1.15;;;;;;;15.09;100.00;97602.03;18290243;32;20095;-57
2023/08/31 07:16:54;;;;;;;1.97;1.23;;;;;;;15.30;100.00;97609.81;18303526;32;20082;-58
2023/08/31 07:26:58;;;;;;;1.92;1.15;;;;;;;15.46;100.00;97624.75;18302949;32;20046;-57
2023/08/31 07:37:01;;;;;;;;;;;;;;;15.66;100.00;97633.59;18288648;32;20422;-57
2023/08/31 07:47:05;;;;;;;1.37;1.00;;;;;;;15.76;100.00;97638.84;18301841;32;19956;-57
2023/08/31 07:57:08;;;;;;;;;;;;;;;15.77;100.00;97651.34;18275597;32;20050;-58
2023/08/31 08:07:11;;;;;;;2.45;1.00;;;;;;;15.99;100.00;97675.22;18274856;32;19975;-58
2023/08/31 08:17:14;;;;;;;2.50;1.40;;;;;;;16.08;100.00;97684.28;18300372;32;20382;-58
2023/08/31 08:27:18;;;;;;;1.80;1.27;;;;;;;15.99;100.00;97685.31;18299981;32;20573;-58
2023/08/31 08:37:21;;;;;;;;;;;;;;;16.03;100.00;97692.59;18273125;32;20133;-58
2023/08/31 08:47:27;;;;;;;1.65;1.10;;;;;;;16.43;100.00;97689.25;18299729;32;19957;-58
2023/08/31 08:57:34;;;;;;;3.22;1.20;;;;;;;16.90;100.00;97710.84;18284762;32;20062;-57
2023/08/31 09:07:38;;;;;;;3.55;1.20;;;;;;;17.15;100.00;97720.34;18298040;32;20090;-58
2023/08/31 09:17:44;;;;;;;3.33;1.35;;;;;;;17.29;100.00;97720.25;18297627;32;20054;-58
2023/08/31 09:27:49;;;;;;;2.60;1.08;;;;;;;17.47;100.00;97721.16;18258524;32;20096;-58
2023/08/31 09:37:57;;;;;;;3.00;1.40;;;;;;;17.53;100.00;97719.09;18282384;32;20094;-58
2023/08/31 09:48:01;;;;;;;1.83;1.27;;;;;;;17.60;100.00;97722.19;18296147;32;20081;-58
2023/08/31 09:58:08;;;;;;;2.10;1.25;;;;;;;18.04;100.00;97723.16;18282235;32;20058;-58
2023/08/31 10:08:18;;;;;;;3.50;1.87;;;;;;;18.54;100.00;97730.19;18281270;32;20098;-58
2023/08/31 10:18:22;;;;;;;;;;;;;;;18.60;100.00;97717.94;18295039;32;20066;-58
2023/08/31 10:28:28;;;;;;;2.90;1.15;;;;;;;18.69;100.00;97725.34;18294459;32;19958;-58
2023/08/31 10:38:32;;;;;;;4.50;1.60;;;;;;;19.04;100.00;97709.72;18280532;32;20046;-57
2023/08/31 10:48:59;;;;;;;2.40;1.33;;;;;;;19.15;100.00;97696.50;18267436;32;20050;-58
2023/08/31 10:59:03;;;;;;;6.30;1.77;;;;;;;19.40;100.00;97699.50;18293410;32;20073;-58
2023/08/31 11:09:06;;;;;;;2.27;1.53;;;;;;;19.19;100.00;97707.63;18292827;32;20110;-58
2023/08/31 11:19:09;;;;;;;3.37;1.30;;;;;;;18.59;100.00;97705.38;18298377;32;20105;-58
2023/08/31 11:29:13;;;;;;;2.47;1.02;;;;;;;18.78;100.00;97696.84;18289374;32;20058;-58
2023/08/31 11:39:17;;;;;;;2.97;1.30;;;;;;;19.34;100.00;97684.37;18302065;32;20480;-58
2023/08/31 11:49:22;;;;;;;2.62;1.35;;;;;;;19.55;100.00;97685.25;18301996;32;20088;-57
2023/08/31 11:59:25;;;;;;;;;;;;;;;20.13;100.00;97695.78;18301525;32;20447;-58
2023/08/31 12:09:28;;;;;;;2.50;1.47;;;;;;;20.33;100.00;97699.72;18287047;32;20043;-58
2023/08/31 12:19:39;;;;;;;2.92;1.00;;;;;;;20.11;100.00;97700.81;18300192;32;20105;-58
2023/08/31 12:29:42;;;;;;;5.43;1.23;;;;;;;19.93;100.00;97694.63;18299178;32;20059;-58
2023/08/31 12:39:45;;;;;;;3.13;1.37;;;;;;;20.08;100.00;97698.75;18299195;32;20042;-58
2023/08/31 12:49:49;;;;;;;3.53;1.30;;;;;;;20.28;100.00;97688.91;18299774;32;20214;-58
2023/08/31 12:59:54;;;;;;;2.65;1.20;;;;;;;20.38;100.00;97687.72;18285535;32;20351;-58
2023/08/31 13:10:00;;;;;;;3.50;1.58;;;;;;;20.78;100.00;97679.03;18284437;32;20054;-58
2023/08/31 13:20:04;;;;;;;2.22;1.65;;;;;;;20.69;100.00;97681.06;18297688;32;20094;-58
2023/08/31 13:30:09;;;;;;;5.18;1.42;;;;;;;21.08;100.00;97679.72;18296892;32;20073;-58
2023/08/31 13:40:12;;;;;;;3.62;1.37;;;;;;;21.13;100.00;97685.00;18295794;32;20049;-58
2023/08/31 13:50:15;;;;;;;;;;;;;;;20.68;100.00;97674.78;18296172;32;20046;-58
2023/08/31 14:00:19;;;;;;;1.90;1.05;;;;;;;20.82;100.00;97664.28;18295592;32;19949;-58
2023/08/31 14:10:22;;;;;;;2.70;1.12;;;;;;;20.88;100.00;97659.38;18294848;32;20066;-58
2023/08/31 14:20:25;;;;;;;2.00;1.15;;;;;;;20.81;100.00;97653.63;18294514;32;20049;-58
2023/08/31 14:30:29;;;;;;;3.17;1.10;;;;;;;20.70;100.00;97657.94;18294915;32;20053;-58
2023/08/31 14:40:35;;;;;;;2.08;1.08;;;;;;;20.46;100.00;97654.72;18280516;32;20062;-58
2023/08/31 14:50:43;;;;;;;2.00;0.98;;;;;;;20.31;100.00;97641.59;18281631;32;20069;-58
2023/08/31 15:00:46;;;;;;;3.72;1.42;;;;;;;20.54;100.00;97643.97;18290498;32;20054;-58
2023/08/31 15:10:49;;;;;;;2.45;1.23;;;;;;;20.70;100.00;97655.19;18290157;32;20042;-58
2023/08/31 15:20:52;;;;;;;2.62;1.20;;;;;;;20.65;100.00;97664.41;18303112;32;20066;-58
2023/08/31 15:30:55;;;;;;;1.48;1.00;;;;;;;20.42;100.00;97672.19;18302928;32;20076;-58
2023/08/31 15:40:59;;;;;;;;;;;;;;;20.23;100.00;97662.47;18302397;32;20068;-58
2023/08/31 15:51:02;;;;;;;2.67;1.12;;;;;;;20.22;100.00;97657.31;18302029;32;19964;-59
2023/08/31 16:01:11;;;;;;;4.00;1.23;;;;;;;20.17;100.00;97655.56;18275230;32;20058;-58
2023/08/31 16:11:15;;;;;;;1.45;0.98;;;;;;;20.00;100.00;97642.78;18300644;32;20050;-58
2023/08/31 16:21:18;;;;;;;2.67;1.10;;;;;;;19.88;100.00;97643.47;18300340;32;20416;-58
2023/08/31 16:31:20;;;;;;;2.42;1.50;;;;;;;19.78;100.00;97657.56;18300109;32;20362;-58
2023/08/31 16:41:24;;;;;;;2.33;1.50;;;;;;;19.79;100.00;97651.72;18285327;32;20054;-58
2023/08/31 16:51:27;;;;;;;2.95;1.60;;;;;;;19.80;100.00;97639.66;18298858;32;20096;-58
2023/08/31 17:01:29;;;;;;;4.37;1.73;;;;;;;19.64;100.00;97638.59;18298345;32;20088;-58
2023/08/31 17:11:33;;;;;;;2.17;1.37;;;;;;;19.27;100.00;97625.34;18284455;32;20369;-58
2023/08/31 17:21:37;;;;;;;4.28;1.35;;;;;;;19.07;100.00;97631.56;18297099;32;20057;-58
2023/08/31 17:31:40;;;;;;;11.07;2.07;;;;;;;18.74;100.00;97618.38;18297061;32;20058;-58
2023/08/31 17:41:45;;;;;;;2.37;1.30;;;;;;;18.49;100.00;97620.84;18296191;32;20154;-58
2023/08/31 17:51:49;;;;;;;3.60;1.77;;;;;;;18.06;100.00;97625.19;18296181;32;20067;-57
2023/08/31 18:01:51;;;;;;;3.30;1.77;;;;;;;17.78;100.00;97619.12;18282043;32;20065;-58
2023/08/31 18:11:54;;;;;;;5.03;1.53;;;;;;;17.53;100.00;97629.69;18295281;32;20101;-58
2023/08/31 18:21:57;;;;;;;4.30;1.50;;;;;;;17.32;100.00;97625.91;18294498;32;20343;-58
2023/08/31 18:32:00;;;;;;;3.70;1.60;;;;;;;17.11;100.00;97638.19;18279825;32;20077;-58
2023/08/31 18:42:03;;;;;;;5.10;1.67;;;;;;;16.99;100.00;97640.69;18229893;32;20075;-57
2023/08/31 18:52:06;;;;;;;6.70;1.87;;;;;;;16.88;100.00;97667.44;18229839;32;20054;-58
2023/08/31 19:02:08;;;;;;;5.72;1.73;;;;;;;16.82;100.00;97685.06;18230423;32;20058;-58
2023/08/31 19:12:11;;;;;;;3.33;1.40;;;;;;;16.78;100.00;97686.78;18229013;32;20050;-58
2023/08/31 19:22:14;;;;;;;5.57;1.30;;;;;;;16.74;100.00;97699.47;18230075;32;20054;-58
2023/08/31 19:32:16;;;;;;;2.65;1.48;;;;;;;16.70;100.00;97703.91;18229310;32;20080;-58
2023/08/31 19:42:19;;;;;;;6.60;1.58;;;;;;;16.61;100.00;97706.59;18289460;32;20400;-58
2023/08/31 19:52:21;;;;;;;5.15;1.60;;;;;;;16.56;100.00;97720.34;18301996;32;20081;-58
2023/08/31 20:02:24;;;;;;;2.28;1.42;;;;;;;16.48;100.00;97726.53;18301303;32;20384;-58
2023/08/31 20:12:27;;;;;;;2.25;1.37;;;;;;;16.37;100.00;97724.03;18300864;32;20062;-58
2023/08/31 20:22:30;;;;;;;3.17;1.80;;;;;;;16.35;100.00;97730.91;18300497;32;20046;-58
2023/08/31 20:32:34;;;;;;;5.40;1.73;;;;;;;16.35;100.00;97730.91;18299919;32;20485;-58
2023/08/31 20:42:38;;;;;;;7.60;2.03;;;;;;;16.36;100.00;97729.78;18299356;32;20161;-57
2023/08/31 20:52:40;;;;;;;3.75;1.90;;;;;;;16.36;100.00;97721.59;18298464;32;20154;-58
2023/08/31 21:02:43;;;;;;;5.37;2.30;;;;;;;16.35;100.00;97742.63;18298465;32;20077;-58
2023/08/31 21:12:46;;;;;;;4.57;2.00;;;;;;;16.33;100.00;97749.50;18297919;32;20062;-59
2023/08/31 21:22:48;;;;;;;6.62;2.22;;;;;;;16.25;100.00;97742.84;18283278;32;20480;-58
2023/08/31 21:32:51;;;;;;;3.22;2.20;;;;;;;16.13;100.00;97751.56;18283389;32;20054;-58
2023/08/31 21:42:53;;;;;;;4.55;1.95;;;;;;;16.02;100.00;97750.13;18296184;32;20042;-58
2023/08/31 21:52:56;;;;;;;5.50;1.90;;;;;;;15.95;100.00;97755.19;18282484;32;20062;-58
2023/08/31 22:02:58;;;;;;;4.47;1.70;;;;;;;15.91;100.00;97750.34;18295134;32;20106;-58
2023/08/31 22:13:01;;;;;;;3.60;1.67;;;;;;;15.83;100.00;97761.16;18295224;32;20070;-58
2023/08/31 22:23:04;;;;;;;3.40;2.05;;;;;;;15.74;100.00;97755.56;18294719;32;20373;-58
2023/08/31 22:33:07;;;;;;;6.05;1.95;;;;;;;15.70;100.00;97754.53;18294786;32;20388;-58
2023/08/31 22:43:10;;;;;;;8.87;2.07;;;;;;;15.70;100.00;97747.16;18279891;32;20058;-58
2023/08/31 22:53:13;;;;;;;2.00;1.70;;;;;;;15.73;100.00;97748.47;18293639;32;20109;-58
2023/08/31 23:03:15;;;;;;;3.80;1.98;;;;;;;15.75;100.00;97740.81;18293108;32;20058;-58
2023/08/31 23:13:18;;;;;;;3.40;1.60;;;;;;;15.81;100.00;97738.84;18334805;32;20051;-58
2023/08/31 23:23:21;;;;;;;4.87;1.50;;;;;;;15.87;100.00;97741.16;18303199;32;20117;-58
2023/08/31 23:33:25;;;;;;;1.13;1.00;;;;;;;15.92;100.00;97751.97;18303313;32;20066;-58
2023/08/31 23:43:27;;;;;;;1.33;0.80;;;;;;;15.96;100.00;97751.38;18302223;32;20080;-58
2023/08/31 23:53:30;;;;;;;2.20;1.00;;;;;;;15.94;100.00;97743.50;18301971;32;20046;-58
